createdAt,value
2016-08-05T00:00:53.252Z,0
2016-08-05T00:01:53.244Z,0
2016-08-05T00:02:53.251Z,0
2016-08-05T00:03:53.249Z,0
2016-08-05T00:04:53.238Z,0
2016-08-05T00:05:53.250Z,0
2016-08-05T00:06:53.249Z,0
2016-08-05T00:07:53.231Z,0
2016-08-05T00:08:53.236Z,0
2016-08-05T00:09:53.243Z,0
2016-08-05T00:10:53.239Z,0
2016-08-05T00:11:53.934Z,0
2016-08-05T00:12:53.237Z,0
2016-08-05T00:13:53.231Z,0
2016-08-05T00:14:53.239Z,0
2016-08-05T00:15:53.235Z,0
2016-08-05T00:16:53.236Z,0
2016-08-05T00:17:56.326Z,0
2016-08-05T00:18:55.954Z,0
2016-08-05T00:19:54.919Z,0
2016-08-05T00:20:54.603Z,0
2016-08-05T00:21:54.090Z,0
2016-08-05T00:22:53.231Z,0
2016-08-05T00:23:53.406Z,0
2016-08-05T00:24:53.230Z,0
2016-08-05T00:25:53.226Z,0
2016-08-05T00:26:55.932Z,0
2016-08-05T00:28:55.895Z,0
2016-08-05T00:29:53.953Z,0
2016-08-05T00:30:53.894Z,0
2016-08-05T00:31:53.295Z,0
2016-08-05T00:32:53.931Z,0
2016-08-05T00:33:53.214Z,0
2016-08-05T00:34:53.222Z,0
2016-08-05T00:35:53.223Z,0
2016-08-05T00:36:53.211Z,0
2016-08-05T00:37:53.221Z,0
2016-08-05T00:38:53.227Z,0
2016-08-05T00:39:53.218Z,0
2016-08-05T00:40:53.212Z,0
2016-08-05T00:41:53.201Z,0
2016-08-05T00:42:53.212Z,0
2016-08-05T00:43:53.209Z,0
2016-08-05T00:44:53.195Z,0
2016-08-05T00:45:53.199Z,0
2016-08-05T00:46:53.198Z,0
2016-08-05T00:47:53.209Z,0
2016-08-05T00:48:53.203Z,0
2016-08-05T00:49:53.207Z,0
2016-08-05T00:50:53.199Z,0
2016-08-05T00:51:53.202Z,0
2016-08-05T00:52:53.194Z,0
2016-08-05T00:53:53.201Z,0
2016-08-05T00:54:53.199Z,0
2016-08-05T00:55:53.185Z,0
2016-08-05T00:56:53.189Z,0
2016-08-05T00:57:54.889Z,0
2016-08-05T00:58:54.938Z,0
2016-08-05T01:00:53.740Z,0
2016-08-05T01:01:53.788Z,0
2016-08-05T01:02:53.337Z,0
2016-08-05T01:03:53.177Z,0
2016-08-05T01:04:53.179Z,0
2016-08-05T01:05:53.184Z,0
2016-08-05T01:06:54.978Z,0
2016-08-05T01:07:54.277Z,0
2016-08-05T01:08:53.163Z,0
2016-08-05T01:09:53.580Z,0
2016-08-05T01:11:08.249Z,0
2016-08-05T01:11:53.923Z,0
2016-08-05T01:12:53.163Z,0
2016-08-05T01:13:53.386Z,0
2016-08-05T01:14:53.162Z,0
2016-08-05T01:15:53.155Z,0
2016-08-05T01:16:53.166Z,0
2016-08-05T01:17:53.152Z,0
2016-08-05T01:18:53.153Z,0
2016-08-05T01:19:53.155Z,0
2016-08-05T01:20:53.143Z,0
2016-08-05T01:21:53.146Z,0
2016-08-05T01:22:53.150Z,0
2016-08-05T01:23:53.146Z,0
2016-08-05T01:24:53.179Z,0
2016-08-05T01:25:53.143Z,0
2016-08-05T01:26:53.140Z,0
2016-08-05T01:27:53.137Z,0
2016-08-05T01:28:53.132Z,0
2016-08-05T01:29:53.144Z,0
2016-08-05T01:30:53.139Z,0
2016-08-05T01:31:53.136Z,0
2016-08-05T01:32:53.128Z,0
2016-08-05T01:33:53.128Z,0
2016-08-05T01:34:53.130Z,0
2016-08-05T01:35:55.462Z,0
2016-08-05T01:36:58.037Z,0
2016-08-05T01:37:54.342Z,0
2016-08-05T01:38:54.872Z,0
2016-08-05T01:39:53.125Z,0
2016-08-05T01:40:53.123Z,0
2016-08-05T01:41:53.623Z,0
2016-08-05T01:42:53.129Z,0
2016-08-05T01:43:53.117Z,0
2016-08-05T01:44:56.216Z,0
2016-08-05T01:46:54.558Z,0
2016-08-05T01:47:53.676Z,0
2016-08-05T01:48:54.524Z,0
2016-08-05T01:49:54.686Z,0
2016-08-05T01:50:53.890Z,0
2016-08-05T01:51:53.103Z,0
2016-08-05T01:52:53.104Z,0
2016-08-05T01:53:53.105Z,0
2016-08-05T01:54:53.091Z,0
2016-08-05T01:55:53.095Z,0
2016-08-05T01:56:53.095Z,0
2016-08-05T01:57:53.111Z,0
2016-08-05T01:58:53.089Z,0
2016-08-05T01:59:53.086Z,0
2016-08-05T02:00:53.183Z,0
2016-08-05T02:01:53.072Z,0
2016-08-05T02:02:53.782Z,0
2016-08-05T02:03:53.076Z,0
2016-08-05T02:04:53.083Z,0
2016-08-05T02:05:53.066Z,0
2016-08-05T02:06:53.074Z,0
2016-08-05T02:07:53.061Z,0
2016-08-05T02:08:53.067Z,0
2016-08-05T02:09:53.067Z,0
2016-08-05T02:10:53.060Z,0
2016-08-05T02:11:53.063Z,0
2016-08-05T02:12:53.061Z,0
2016-08-05T02:13:53.050Z,0
2016-08-05T02:14:53.053Z,0
2016-08-05T02:16:22.880Z,0
2016-08-05T02:17:08.722Z,0
2016-08-05T02:17:54.244Z,0
2016-08-05T02:18:53.658Z,0
2016-08-05T02:19:53.049Z,0
2016-08-05T02:20:53.050Z,0
2016-08-05T02:21:53.027Z,0
2016-08-05T02:22:53.235Z,0
2016-08-05T02:23:53.029Z,0
2016-08-05T02:24:54.690Z,0
2016-08-05T02:26:53.786Z,0
2016-08-05T02:27:53.473Z,0
2016-08-05T02:28:53.029Z,0
2016-08-05T02:29:53.020Z,0
2016-08-05T02:30:53.025Z,0
2016-08-05T02:31:53.023Z,0
2016-08-05T02:32:53.015Z,0
2016-08-05T02:33:53.694Z,0
2016-08-05T02:34:53.033Z,0
2016-08-05T02:35:53.005Z,0
2016-08-05T02:36:53.005Z,0
2016-08-05T02:37:52.998Z,0
2016-08-05T02:38:53.001Z,0
2016-08-05T02:39:53.005Z,0
2016-08-05T02:40:53.692Z,0
2016-08-05T02:41:52.997Z,0
2016-08-05T02:42:52.982Z,0
2016-08-05T02:43:52.982Z,0
2016-08-05T02:44:52.985Z,0
2016-08-05T02:45:52.982Z,0
2016-08-05T02:46:52.985Z,0
2016-08-05T02:47:52.986Z,0
2016-08-05T02:48:52.971Z,0
2016-08-05T02:49:52.975Z,0
2016-08-05T02:50:52.968Z,0
2016-08-05T02:51:52.963Z,0
2016-08-05T02:52:52.971Z,0
2016-08-05T02:53:52.962Z,0
2016-08-05T02:54:52.981Z,0
2016-08-05T02:55:52.963Z,0
2016-08-05T02:56:52.962Z,0
2016-08-05T02:57:52.953Z,0
2016-08-05T02:58:52.939Z,0
2016-08-05T02:59:52.955Z,0
2016-08-05T03:00:52.978Z,0
2016-08-05T03:01:52.943Z,0
2016-08-05T03:02:52.937Z,0
2016-08-05T03:03:52.937Z,0
2016-08-05T03:04:52.935Z,0
2016-08-05T03:05:52.938Z,0
2016-08-05T03:06:52.940Z,0
2016-08-05T03:07:52.935Z,0
2016-08-05T03:08:52.918Z,0
2016-08-05T03:09:52.931Z,0
2016-08-05T03:10:52.925Z,0
2016-08-05T03:11:52.909Z,0
2016-08-05T03:12:52.921Z,0
2016-08-05T03:13:52.907Z,0
2016-08-05T03:14:52.917Z,0
2016-08-05T03:15:52.904Z,0
2016-08-05T03:16:52.910Z,0
2016-08-05T03:17:52.901Z,0
2016-08-05T03:18:52.907Z,0
2016-08-05T03:19:52.900Z,0
2016-08-05T03:20:52.894Z,0
2016-08-05T03:21:52.896Z,0
2016-08-05T03:22:52.889Z,0
2016-08-05T03:23:52.897Z,0
2016-08-05T03:24:52.877Z,0
2016-08-05T03:25:52.883Z,0
2016-08-05T03:26:52.876Z,0
2016-08-05T03:27:52.868Z,0
2016-08-05T03:28:53.581Z,0
2016-08-05T03:29:52.875Z,0
2016-08-05T03:30:52.867Z,0
2016-08-05T03:31:52.866Z,0
2016-08-05T03:32:52.854Z,0
2016-08-05T03:34:09.333Z,0
2016-08-05T03:35:07.929Z,0
2016-08-05T03:37:07.927Z,0
2016-08-05T03:37:53.850Z,0
2016-08-05T03:38:52.853Z,0
2016-08-05T03:39:52.855Z,0
2016-08-05T03:40:52.844Z,0
2016-08-05T03:41:52.840Z,0
2016-08-05T03:44:09.123Z,0
2016-08-05T03:44:53.485Z,0
2016-08-05T03:45:53.435Z,0
2016-08-05T03:46:53.436Z,0
2016-08-05T03:47:52.827Z,0
2016-08-05T03:48:53.142Z,0
2016-08-05T03:49:52.976Z,0
2016-08-05T03:50:52.824Z,0
2016-08-05T03:51:52.814Z,0
2016-08-05T03:52:52.815Z,0
2016-08-05T03:55:54.435Z,0
2016-08-05T03:56:53.941Z,5
2016-08-05T03:57:55.106Z,5
2016-08-05T03:58:53.017Z,5
2016-08-05T03:59:52.797Z,5
2016-08-05T04:00:52.889Z,5
2016-08-05T04:01:52.789Z,5
2016-08-05T04:02:55.013Z,5
2016-08-05T04:04:54.698Z,5
2016-08-05T04:05:54.703Z,5
2016-08-05T04:06:54.227Z,5
2016-08-05T04:07:52.777Z,5
2016-08-05T04:08:52.777Z,5
2016-08-05T04:09:52.769Z,5
2016-08-05T04:10:52.779Z,5
2016-08-05T04:11:52.774Z,10
2016-08-05T04:12:52.760Z,10
2016-08-05T04:13:52.762Z,10
2016-08-05T04:14:52.764Z,10
2016-08-05T04:15:52.755Z,10
2016-08-05T04:16:52.765Z,10
2016-08-05T04:17:52.753Z,10
2016-08-05T04:18:52.753Z,10
2016-08-05T04:19:53.444Z,10
2016-08-05T04:20:52.751Z,10
2016-08-05T04:21:52.746Z,10
2016-08-05T04:22:52.744Z,5
2016-08-05T04:23:53.433Z,5
2016-08-05T04:24:52.751Z,5
2016-08-05T04:26:53.421Z,5
2016-08-05T04:27:52.718Z,10
2016-08-05T04:28:52.722Z,10
2016-08-05T04:29:52.722Z,10
2016-08-05T04:30:52.724Z,10
2016-08-05T04:31:52.724Z,15
2016-08-05T04:32:53.418Z,15
2016-08-05T04:33:52.705Z,15
2016-08-05T04:34:52.708Z,10
2016-08-05T04:35:52.713Z,10
2016-08-05T04:36:52.701Z,10
2016-08-05T04:37:52.700Z,10
2016-08-05T04:38:52.703Z,10
2016-08-05T04:39:52.688Z,10
2016-08-05T04:41:52.701Z,10
2016-08-05T04:42:52.685Z,10
2016-08-05T04:43:52.673Z,10
2016-08-05T04:44:52.684Z,15
2016-08-05T04:45:52.685Z,15
2016-08-05T04:46:52.687Z,15
2016-08-05T04:47:52.674Z,15
2016-08-05T04:48:52.679Z,15
2016-08-05T04:49:52.689Z,15
2016-08-05T04:50:52.669Z,15
2016-08-05T04:53:08.037Z,15
2016-08-05T04:54:08.929Z,15
2016-08-05T04:54:53.596Z,15
2016-08-05T04:57:08.163Z,15
2016-08-05T04:57:52.661Z,15
2016-08-05T04:58:52.895Z,15
2016-08-05T04:59:52.640Z,15
2016-08-05T05:00:52.641Z,20
2016-08-05T05:02:53.310Z,20
2016-08-05T05:03:53.374Z,20
2016-08-05T05:05:53.573Z,20
2016-08-05T05:06:52.974Z,20
2016-08-05T05:07:52.617Z,20
2016-08-05T05:08:52.615Z,20
2016-08-05T05:09:52.630Z,20
2016-08-05T05:11:55.220Z,20
2016-08-05T05:13:54.075Z,20
2016-08-05T05:14:54.484Z,20
2016-08-05T05:15:53.594Z,20
2016-08-05T05:16:52.597Z,20
2016-08-05T05:17:53.164Z,25
2016-08-05T05:18:53.162Z,25
2016-08-05T05:19:52.592Z,25
2016-08-05T05:20:52.596Z,25
2016-08-05T05:21:54.967Z,25
2016-08-05T05:22:54.479Z,25
2016-08-05T05:23:53.417Z,30
2016-08-05T05:24:53.040Z,30
2016-08-05T05:25:52.578Z,30
2016-08-05T05:26:53.590Z,30
2016-08-05T05:27:52.588Z,35
2016-08-05T05:28:52.574Z,35
2016-08-05T05:29:52.566Z,35
2016-08-05T05:30:52.570Z,35
2016-08-05T05:31:52.559Z,35
2016-08-05T05:32:52.562Z,35
2016-08-05T05:33:52.548Z,35
2016-08-05T05:34:52.547Z,35
2016-08-05T05:35:52.542Z,35
2016-08-05T05:36:52.556Z,35
2016-08-05T05:37:52.541Z,35
2016-08-05T05:38:52.533Z,35
2016-08-05T05:39:52.538Z,40
2016-08-05T05:40:52.544Z,40
2016-08-05T05:41:52.541Z,40
2016-08-05T05:42:52.534Z,45
2016-08-05T05:43:52.532Z,50
2016-08-05T05:44:53.230Z,50
2016-08-05T05:45:52.539Z,55
2016-08-05T05:46:52.526Z,60
2016-08-05T05:47:52.513Z,65
2016-08-05T05:48:52.518Z,70
2016-08-05T05:49:52.521Z,70
2016-08-05T05:50:52.507Z,70
2016-08-05T05:51:52.504Z,75
2016-08-05T05:52:52.507Z,75
2016-08-05T05:53:52.508Z,75
2016-08-05T05:54:52.507Z,75
2016-08-05T05:55:52.497Z,75
2016-08-05T05:56:52.503Z,75
2016-08-05T05:57:52.501Z,70
2016-08-05T05:58:52.491Z,70
2016-08-05T05:59:52.493Z,70
2016-08-05T06:00:52.590Z,70
2016-08-05T06:01:52.497Z,70
2016-08-05T06:02:52.504Z,70
2016-08-05T06:03:52.489Z,75
2016-08-05T06:04:52.481Z,80
2016-08-05T06:05:52.476Z,85
2016-08-05T06:06:52.468Z,85
2016-08-05T06:07:52.464Z,85
2016-08-05T06:08:52.470Z,85
2016-08-05T06:09:52.464Z,85
2016-08-05T06:11:52.472Z,85
2016-08-05T06:12:53.103Z,85
2016-08-05T06:14:07.964Z,85
2016-08-05T06:14:52.960Z,85
2016-08-05T06:15:53.148Z,85
2016-08-05T06:16:52.444Z,85
2016-08-05T06:17:52.447Z,85
2016-08-05T06:18:52.446Z,85
2016-08-05T06:19:54.582Z,85
2016-08-05T06:21:53.040Z,85
2016-08-05T06:23:22.266Z,85
2016-08-05T06:23:53.374Z,85
2016-08-05T06:24:53.624Z,85
2016-08-05T06:25:52.718Z,90
2016-08-05T06:26:52.424Z,90
2016-08-05T06:27:52.423Z,85
2016-08-05T06:28:52.424Z,85
2016-08-05T06:29:52.429Z,90
2016-08-05T06:30:55.350Z,90
2016-08-05T06:31:55.052Z,95
2016-08-05T06:32:54.473Z,100
2016-08-05T06:33:54.554Z,105
2016-08-05T06:34:52.396Z,105
2016-08-05T06:35:53.714Z,105
2016-08-05T06:36:52.387Z,105
2016-08-05T06:37:52.398Z,105
2016-08-05T06:38:52.393Z,110
2016-08-05T06:39:57.520Z,115
2016-08-05T06:40:55.482Z,120
2016-08-05T06:41:53.655Z,120
2016-08-05T06:42:54.161Z,125
2016-08-05T06:43:52.376Z,130
2016-08-05T06:44:52.386Z,130
2016-08-05T06:45:52.925Z,130
2016-08-05T06:46:52.386Z,130
2016-08-05T06:47:52.370Z,130
2016-08-05T06:48:52.367Z,130
2016-08-05T06:49:52.351Z,130
2016-08-05T06:50:52.369Z,130
2016-08-05T06:51:52.379Z,130
2016-08-05T06:52:52.355Z,135
2016-08-05T06:53:52.347Z,135
2016-08-05T06:54:52.357Z,140
2016-08-05T06:55:52.345Z,140
2016-08-05T06:56:52.347Z,145
2016-08-05T06:57:52.357Z,150
2016-08-05T06:58:52.346Z,155
2016-08-05T06:59:52.340Z,165
2016-08-05T07:00:52.392Z,170
2016-08-05T07:01:52.339Z,165
2016-08-05T07:02:52.349Z,165
2016-08-05T07:03:52.351Z,165
2016-08-05T07:04:52.323Z,165
2016-08-05T07:05:52.338Z,170
2016-08-05T07:06:52.329Z,170
2016-08-05T07:07:52.323Z,175
2016-08-05T07:08:52.322Z,175
2016-08-05T07:09:52.323Z,175
2016-08-05T07:10:52.324Z,180
2016-08-05T07:11:53.017Z,180
2016-08-05T07:12:52.315Z,180
2016-08-05T07:13:52.308Z,180
2016-08-05T07:14:52.299Z,180
2016-08-05T07:15:52.301Z,185
2016-08-05T07:16:52.303Z,190
2016-08-05T07:17:52.311Z,200
2016-08-05T07:18:52.308Z,210
2016-08-05T07:19:52.299Z,215
2016-08-05T07:20:52.302Z,220
2016-08-05T07:21:52.297Z,225
2016-08-05T07:22:52.296Z,225
2016-08-05T07:23:52.299Z,220
2016-08-05T07:24:52.291Z,220
2016-08-05T07:25:52.284Z,220
2016-08-05T07:26:52.297Z,215
2016-08-05T07:27:53.001Z,210
2016-08-05T07:29:07.747Z,200
2016-08-05T07:29:53.437Z,195
2016-08-05T07:32:07.449Z,190
2016-08-05T07:32:52.776Z,200
2016-08-05T07:33:52.875Z,195
2016-08-05T07:34:52.575Z,200
2016-08-05T07:35:52.280Z,200
2016-08-05T07:36:52.269Z,205
2016-08-05T07:38:08.286Z,210
2016-08-05T07:38:53.627Z,215
2016-08-05T07:39:52.877Z,220
2016-08-05T07:41:07.487Z,225
2016-08-05T07:41:53.318Z,225
2016-08-05T07:42:52.263Z,235
2016-08-05T07:43:52.261Z,230
2016-08-05T07:44:52.465Z,230
2016-08-05T07:45:52.364Z,225
2016-08-05T07:46:52.261Z,225
2016-08-05T07:47:52.271Z,220
2016-08-05T07:48:54.863Z,220
2016-08-05T07:49:54.094Z,220
2016-08-05T07:50:54.613Z,225
2016-08-05T07:51:53.481Z,225
2016-08-05T07:52:54.145Z,225
2016-08-05T07:53:52.259Z,220
2016-08-05T07:54:52.254Z,220
2016-08-05T07:55:52.258Z,215
2016-08-05T07:56:52.258Z,210
2016-08-05T07:58:56.479Z,195
2016-08-05T07:59:53.762Z,190
2016-08-05T08:00:53.197Z,185
2016-08-05T08:01:54.360Z,185
2016-08-05T08:02:52.241Z,180
2016-08-05T08:03:52.247Z,185
2016-08-05T08:04:52.242Z,180
2016-08-05T08:05:52.247Z,170
2016-08-05T08:06:52.247Z,165
2016-08-05T08:07:52.252Z,160
2016-08-05T08:08:52.244Z,155
2016-08-05T08:09:52.267Z,150
2016-08-05T08:10:52.228Z,140
2016-08-05T08:11:52.238Z,130
2016-08-05T08:12:52.238Z,120
2016-08-05T08:13:52.225Z,110
2016-08-05T08:14:52.234Z,105
2016-08-05T08:15:52.924Z,105
2016-08-05T08:16:52.233Z,105
2016-08-05T08:17:52.239Z,105
2016-08-05T08:18:58.870Z,105
2016-08-05T08:19:52.226Z,110
2016-08-05T08:20:52.218Z,115
2016-08-05T08:21:52.228Z,120
2016-08-05T08:22:52.220Z,120
2016-08-05T08:23:52.225Z,130
2016-08-05T08:24:52.210Z,130
2016-08-05T08:25:52.227Z,140
2016-08-05T08:26:52.218Z,150
2016-08-05T08:27:52.229Z,165
2016-08-05T08:28:52.221Z,175
2016-08-05T08:29:52.215Z,185
2016-08-05T08:30:52.213Z,195
2016-08-05T08:31:52.208Z,210
2016-08-05T08:32:52.222Z,235
2016-08-05T08:33:52.221Z,260
2016-08-05T08:34:52.203Z,290
2016-08-05T08:35:52.197Z,310
2016-08-05T08:36:52.204Z,325
2016-08-05T08:37:52.201Z,335
2016-08-05T08:38:52.207Z,345
2016-08-05T08:39:52.201Z,350
2016-08-05T08:40:52.204Z,355
2016-08-05T08:41:52.206Z,365
2016-08-05T08:42:52.205Z,375
2016-08-05T08:43:52.199Z,375
2016-08-05T08:44:52.896Z,380
2016-08-05T08:45:52.190Z,385
2016-08-05T08:46:53.799Z,370
2016-08-05T08:48:07.569Z,360
2016-08-05T08:48:53.648Z,350
2016-08-05T08:49:52.560Z,335
2016-08-05T08:50:52.749Z,340
2016-08-05T08:51:53.543Z,345
2016-08-05T08:52:52.879Z,355
2016-08-05T08:53:52.190Z,380
2016-08-05T08:54:52.195Z,410
2016-08-05T08:55:54.391Z,440
2016-08-05T08:57:07.710Z,460
2016-08-05T08:58:07.908Z,465
2016-08-05T08:58:52.839Z,465
2016-08-05T08:59:52.486Z,460
2016-08-05T09:00:52.287Z,455
2016-08-05T09:01:52.942Z,460
2016-08-05T09:02:52.195Z,475
2016-08-05T09:03:52.199Z,490
2016-08-05T09:04:52.191Z,495
2016-08-05T09:05:52.188Z,485
2016-08-05T09:06:54.968Z,480
2016-08-05T09:08:54.640Z,490
2016-08-05T09:09:54.523Z,505
2016-08-05T09:10:53.106Z,515
2016-08-05T09:11:52.201Z,540
2016-08-05T09:12:52.207Z,565
2016-08-05T09:13:52.200Z,570
2016-08-05T09:14:52.326Z,570
2016-08-05T09:16:09.131Z,565
2016-08-05T09:16:55.498Z,550
2016-08-05T09:17:53.853Z,535
2016-08-05T09:18:54.266Z,525
2016-08-05T09:19:53.332Z,520
2016-08-05T09:20:52.217Z,535
2016-08-05T09:21:52.787Z,560
2016-08-05T09:22:52.692Z,590
2016-08-05T09:23:52.213Z,615
2016-08-05T09:24:52.205Z,635
2016-08-05T09:25:52.220Z,635
2016-08-05T09:26:52.223Z,625
2016-08-05T09:27:52.208Z,595
2016-08-05T09:28:52.218Z,550
2016-08-05T09:29:52.222Z,540
2016-08-05T09:30:52.228Z,545
2016-08-05T09:31:52.220Z,550
2016-08-05T09:32:52.228Z,550
2016-08-05T09:33:52.231Z,570
2016-08-05T09:34:52.233Z,585
2016-08-05T09:35:52.234Z,595
2016-08-05T09:36:52.230Z,615
2016-08-05T09:37:52.235Z,625
2016-08-05T09:38:52.935Z,625
2016-08-05T09:39:52.242Z,615
2016-08-05T09:40:52.247Z,610
2016-08-05T09:41:52.253Z,615
2016-08-05T09:42:52.252Z,610
2016-08-05T09:43:52.252Z,585
2016-08-05T09:44:52.265Z,550
2016-08-05T09:45:52.251Z,525
2016-08-05T09:46:52.259Z,500
2016-08-05T09:47:52.271Z,480
2016-08-05T09:48:52.265Z,470
2016-08-05T09:49:52.294Z,445
2016-08-05T09:50:52.291Z,445
2016-08-05T09:51:52.285Z,460
2016-08-05T09:52:52.281Z,475
2016-08-05T09:53:52.283Z,475
2016-08-05T09:54:52.287Z,475
2016-08-05T09:55:52.302Z,485
2016-08-05T09:56:52.315Z,510
2016-08-05T09:57:52.987Z,520
2016-08-05T09:58:52.295Z,550
2016-08-05T09:59:53.303Z,625
2016-08-05T10:00:52.305Z,705
2016-08-05T10:01:52.310Z,740
2016-08-05T10:02:52.323Z,760
2016-08-05T10:03:52.322Z,755
2016-08-05T10:04:52.322Z,710
2016-08-05T10:05:54.535Z,670
2016-08-05T10:07:52.929Z,645
2016-08-05T10:08:52.835Z,600
2016-08-05T10:09:52.494Z,595
2016-08-05T10:10:53.487Z,630
2016-08-05T10:11:52.336Z,680
2016-08-05T10:12:52.350Z,685
2016-08-05T10:13:52.360Z,620
2016-08-05T10:16:07.327Z,600
2016-08-05T10:17:08.339Z,625
2016-08-05T10:19:07.860Z,580
2016-08-05T10:19:52.538Z,590
2016-08-05T10:20:52.386Z,605
2016-08-05T10:21:53.089Z,620
2016-08-05T10:22:52.399Z,685
2016-08-05T10:23:52.409Z,710
2016-08-05T10:24:53.925Z,710
2016-08-05T10:26:54.538Z,710
2016-08-05T10:27:55.310Z,715
2016-08-05T10:28:52.747Z,715
2016-08-05T10:29:52.433Z,705
2016-08-05T10:30:53.378Z,715
2016-08-05T10:31:52.441Z,765
2016-08-05T10:32:52.447Z,835
2016-08-05T10:33:52.446Z,880
2016-08-05T10:34:54.419Z,885
2016-08-05T10:35:53.887Z,860
2016-08-05T10:36:55.233Z,810
2016-08-05T10:37:52.998Z,805
2016-08-05T10:38:52.663Z,820
2016-08-05T10:39:53.870Z,840
2016-08-05T10:40:52.500Z,855
2016-08-05T10:41:52.484Z,860
2016-08-05T10:42:52.493Z,840
2016-08-05T10:43:52.700Z,840
2016-08-05T10:44:52.512Z,895
2016-08-05T10:45:52.521Z,945
2016-08-05T10:46:53.220Z,965
2016-08-05T10:47:52.551Z,935
2016-08-05T10:48:52.533Z,885
2016-08-05T10:49:52.551Z,855
2016-08-05T10:50:52.561Z,855
2016-08-05T10:51:53.252Z,840
2016-08-05T10:52:52.569Z,785
2016-08-05T10:53:52.574Z,690
2016-08-05T10:54:52.589Z,590
2016-08-05T10:55:52.585Z,500
2016-08-05T10:57:52.596Z,485
2016-08-05T10:58:52.607Z,555
2016-08-05T10:59:53.312Z,625
2016-08-05T11:00:52.735Z,635
2016-08-05T11:01:52.639Z,635
2016-08-05T11:02:52.642Z,680
2016-08-05T11:03:52.643Z,750
2016-08-05T11:04:52.647Z,825
2016-08-05T11:05:52.655Z,845
2016-08-05T11:06:52.665Z,845
2016-08-05T11:07:52.671Z,860
2016-08-05T11:08:52.680Z,875
2016-08-05T11:09:52.680Z,860
2016-08-05T11:10:52.685Z,855
2016-08-05T11:12:52.703Z,855
2016-08-05T11:13:52.719Z,815
2016-08-05T11:14:52.721Z,750
2016-08-05T11:15:52.725Z,700
2016-08-05T11:16:54.134Z,685
2016-08-05T11:17:52.742Z,690
2016-08-05T11:18:52.741Z,660
2016-08-05T11:19:52.760Z,645
2016-08-05T11:20:52.756Z,645
2016-08-05T11:21:52.769Z,675
2016-08-05T11:22:52.769Z,735
2016-08-05T11:24:54.645Z,815
2016-08-05T11:26:08.569Z,775
2016-08-05T11:27:53.364Z,710
2016-08-05T11:28:53.222Z,690
2016-08-05T11:29:52.835Z,665
2016-08-05T11:30:52.826Z,675
2016-08-05T11:31:52.844Z,705
2016-08-05T11:33:54.651Z,760
2016-08-05T11:36:07.802Z,730
2016-08-05T11:36:54.298Z,695
2016-08-05T11:37:52.940Z,680
2016-08-05T11:38:53.397Z,695
2016-08-05T11:39:52.900Z,735
2016-08-05T11:40:52.911Z,775
2016-08-05T11:41:52.921Z,805
2016-08-05T11:42:52.916Z,830
2016-08-05T11:43:56.260Z,840
2016-08-05T11:44:55.951Z,805
2016-08-05T11:45:54.217Z,755
2016-08-05T11:46:55.538Z,720
2016-08-05T11:47:52.962Z,680
2016-08-05T11:48:52.964Z,635
2016-08-05T11:49:52.981Z,570
2016-08-05T11:50:53.089Z,585
2016-08-05T11:51:52.995Z,615
2016-08-05T11:52:54.905Z,615
2016-08-05T11:53:55.036Z,630
2016-08-05T11:54:57.163Z,650
2016-08-05T11:55:55.573Z,660
2016-08-05T11:56:53.719Z,665
2016-08-05T11:57:53.036Z,690
2016-08-05T11:58:53.070Z,725
2016-08-05T11:59:53.047Z,740
2016-08-05T12:00:53.052Z,720
2016-08-05T12:01:53.060Z,700
2016-08-05T12:02:53.073Z,690
2016-08-05T12:03:53.092Z,680
2016-08-05T12:04:53.782Z,690
2016-08-05T12:05:53.088Z,690
2016-08-05T12:06:53.096Z,705
2016-08-05T12:07:53.101Z,715
2016-08-05T12:08:53.107Z,700
2016-08-05T12:09:53.127Z,670
2016-08-05T12:10:53.128Z,645
2016-08-05T12:11:53.832Z,615
2016-08-05T12:12:53.149Z,615
2016-08-05T12:13:53.147Z,625
2016-08-05T12:14:53.166Z,635
2016-08-05T12:15:53.164Z,665
2016-08-05T12:16:53.877Z,695
2016-08-05T12:17:53.191Z,700
2016-08-05T12:18:53.886Z,735
2016-08-05T12:19:53.195Z,770
2016-08-05T12:20:53.207Z,770
2016-08-05T12:21:53.209Z,745
2016-08-05T12:22:53.231Z,700
2016-08-05T12:23:53.248Z,640
2016-08-05T12:24:53.236Z,610
2016-08-05T12:25:53.251Z,555
2016-08-05T12:26:53.261Z,495
2016-08-05T12:27:53.266Z,495
2016-08-05T12:28:53.259Z,540
2016-08-05T12:29:53.286Z,575
2016-08-05T12:30:53.296Z,580
2016-08-05T12:31:53.294Z,585
2016-08-05T12:32:53.295Z,600
2016-08-05T12:33:53.310Z,635
2016-08-05T12:34:53.318Z,660
2016-08-05T12:35:53.321Z,690
2016-08-05T12:36:53.331Z,715
2016-08-05T12:37:53.336Z,715
2016-08-05T12:38:53.344Z,710
2016-08-05T12:39:53.354Z,710
2016-08-05T12:40:53.356Z,685
2016-08-05T12:42:08.583Z,690
2016-08-05T12:42:54.913Z,710
2016-08-05T12:44:23.664Z,725
2016-08-05T12:44:53.433Z,715
2016-08-05T12:46:54.347Z,715
2016-08-05T12:47:53.859Z,710
2016-08-05T12:48:53.432Z,700
2016-08-05T12:49:53.424Z,670
2016-08-05T12:51:09.754Z,610
2016-08-05T12:51:54.133Z,585
2016-08-05T12:52:54.253Z,570
2016-08-05T12:53:54.008Z,590
2016-08-05T12:54:53.562Z,615
2016-08-05T12:55:53.574Z,620
2016-08-05T12:56:53.491Z,630
2016-08-05T12:57:53.484Z,640
2016-08-05T12:58:53.488Z,650
2016-08-05T12:59:53.496Z,640
2016-08-05T13:00:54.003Z,635
2016-08-05T13:02:57.219Z,610
2016-08-05T13:03:56.147Z,605
2016-08-05T13:04:54.982Z,610
2016-08-05T13:05:54.441Z,625
2016-08-05T13:06:53.550Z,625
2016-08-05T13:07:53.558Z,610
2016-08-05T13:08:54.257Z,595
2016-08-05T13:09:53.614Z,585
2016-08-05T13:10:56.618Z,570
2016-08-05T13:12:55.722Z,535
2016-08-05T13:13:55.117Z,515
2016-08-05T13:14:54.057Z,490
2016-08-05T13:15:54.016Z,500
2016-08-05T13:16:53.627Z,520
2016-08-05T13:17:53.632Z,525
2016-08-05T13:18:53.643Z,555
2016-08-05T13:19:53.641Z,580
2016-08-05T13:20:53.647Z,600
2016-08-05T13:21:53.650Z,605
2016-08-05T13:22:53.676Z,615
2016-08-05T13:23:53.670Z,630
2016-08-05T13:24:53.786Z,650
2016-08-05T13:25:53.686Z,660
2016-08-05T13:26:53.691Z,650
2016-08-05T13:27:53.691Z,645
2016-08-05T13:28:53.704Z,660
2016-08-05T13:29:53.707Z,690
2016-08-05T13:30:53.719Z,715
2016-08-05T13:31:53.724Z,710
2016-08-05T13:32:53.730Z,690
2016-08-05T13:33:53.731Z,695
2016-08-05T13:34:53.743Z,695
2016-08-05T13:35:53.748Z,690
2016-08-05T13:36:53.754Z,645
2016-08-05T13:37:53.768Z,610
2016-08-05T13:38:53.776Z,575
2016-08-05T13:39:53.778Z,560
2016-08-05T13:40:53.788Z,545
2016-08-05T13:41:53.784Z,540
2016-08-05T13:42:53.802Z,540
2016-08-05T13:43:53.827Z,560
2016-08-05T13:44:53.820Z,565
2016-08-05T13:45:53.822Z,560
2016-08-05T13:46:54.547Z,545
2016-08-05T13:47:53.839Z,530
2016-08-05T13:48:53.840Z,510
2016-08-05T13:49:53.852Z,480
2016-08-05T13:50:53.860Z,460
2016-08-05T13:51:53.863Z,425
2016-08-05T13:52:53.879Z,385
2016-08-05T13:53:53.893Z,345
2016-08-05T13:54:53.890Z,300
2016-08-05T13:55:53.889Z,270
2016-08-05T13:56:53.900Z,240
2016-08-05T13:57:53.906Z,225
2016-08-05T13:58:53.907Z,205
2016-08-05T14:03:08.955Z,210
2016-08-05T14:04:09.065Z,215
2016-08-05T14:04:53.944Z,225
2016-08-05T14:05:53.957Z,240
2016-08-05T14:06:53.956Z,260
2016-08-05T14:07:53.966Z,265
2016-08-05T14:09:10.097Z,260
2016-08-05T14:11:23.974Z,270
2016-08-05T14:12:09.423Z,275
2016-08-05T14:13:09.857Z,280
2016-08-05T14:13:54.709Z,285
2016-08-05T14:14:54.012Z,270
2016-08-05T14:15:54.011Z,260
2016-08-05T14:16:54.017Z,250
2016-08-05T14:17:54.017Z,235
2016-08-05T14:18:54.024Z,225
2016-08-05T14:21:55.765Z,175
2016-08-05T14:22:55.188Z,145
2016-08-05T14:23:56.466Z,120
2016-08-05T14:24:54.432Z,105
2016-08-05T14:25:54.131Z,105
2016-08-05T14:26:54.063Z,110
2016-08-05T14:27:54.063Z,120
2016-08-05T14:28:56.811Z,130
2016-08-05T14:30:56.800Z,135
2016-08-05T14:31:54.696Z,135
2016-08-05T14:32:56.358Z,140
2016-08-05T14:33:54.752Z,150
2016-08-05T14:34:54.820Z,170
2016-08-05T14:35:54.205Z,175
2016-08-05T14:36:54.101Z,185
2016-08-05T14:37:54.124Z,195
2016-08-05T14:38:54.105Z,195
2016-08-05T14:39:54.821Z,205
2016-08-05T14:40:54.116Z,215
2016-08-05T14:41:54.110Z,225
2016-08-05T14:42:54.125Z,225
2016-08-05T14:43:54.123Z,235
2016-08-05T14:44:54.121Z,235
2016-08-05T14:45:54.145Z,235
2016-08-05T14:46:54.139Z,240
2016-08-05T14:47:54.141Z,240
2016-08-05T14:48:54.843Z,240
2016-08-05T14:49:54.151Z,245